Time;durP1;ratioP1;P1;durP2;ratioP2;P2;SDS_P1;SDS_P2;PMS_P1;PMS_P2;Temp;Humidity;BMP_temperature;BMP_pressure;BME280_temperature;BME280_humidity;BME280_pressure;Samples;Min_cycle;Max_cycle;Signal;HPM_P1;HPM_P2
2021/11/25 00:01:08;;;;;;;;;;;21.20;99.90;;;;;;5071988;28;19920;-76
2021/11/25 00:03:35;;;;;;;;;;;21.30;99.90;;;;;;5072108;28;19909;-76
2021/11/25 00:06:01;;;;;;;;;;;21.30;99.90;;;;;;5071770;28;19909;-76
2021/11/25 00:08:28;;;;;;;;;;;21.40;99.90;;;;;;5071848;28;19939;-76
2021/11/25 00:10:55;;;;;;;;;;;21.50;99.90;;;;;;5072014;28;19915;-75
2021/11/25 00:13:22;;;;;;;;;;;21.50;99.90;;;;;;5072358;28;19909;-75
2021/11/25 00:15:48;;;;;;;;;;;21.60;99.90;;;;;;5072112;28;19916;-76
2021/11/25 00:18:18;;;;;;;;;;;21.60;99.90;;;;;;5073804;28;19912;-76
2021/11/25 00:20:45;;;;;;;;;;;21.70;99.90;;;;;;5075682;28;19913;-75
2021/11/25 00:23:12;;;;;;;;;;;21.70;99.90;;;;;;5075532;28;19908;-76
2021/11/25 00:25:39;;;;;;;;;;;21.80;99.90;;;;;;5075651;28;19909;-75
2021/11/25 00:28:06;;;;;;;;;;;21.80;99.90;;;;;;5075419;28;19965;-75
2021/11/25 00:30:32;;;;;;;;;;;21.70;99.90;;;;;;5075571;28;19919;-74
2021/11/25 00:32:59;;;;;;;;;;;21.70;99.90;;;;;;5075632;28;20351;-72
2021/11/25 00:35:26;;;;;;;;;;;21.70;99.90;;;;;;5075521;28;20421;-73
2021/11/25 00:37:52;;;;;;;;;;;21.70;99.90;;;;;;5075423;28;19923;-76
2021/11/25 00:40:19;;;;;;;;;;;21.80;99.90;;;;;;5091443;28;19963;-74
2021/11/25 00:42:46;;;;;;;;;;;21.90;99.90;;;;;;5075319;28;19913;-75
2021/11/25 00:45:14;;;;;;;;;;;22.00;99.90;;;;;;5075325;28;20429;-74
2021/11/25 00:47:41;;;;;;;;;;;22.00;99.90;;;;;;5075385;28;19916;-75
2021/11/25 00:50:09;;;;;;;;;;;22.10;99.90;;;;;;5075048;28;19912;-74
2021/11/25 00:52:36;;;;;;;;;;;22.10;99.90;;;;;;5075240;28;19919;-75
2021/11/25 00:55:03;;;;;;;;;;;22.10;99.90;;;;;;5075061;28;19999;-74
2021/11/25 00:57:30;;;;;;;;;;;22.10;99.90;;;;;;5075109;28;19928;-72
2021/11/25 00:59:57;;;;;;;;;;;22.10;99.90;;;;;;5074903;28;19922;-73
2021/11/25 01:02:23;;;;;;;;;;;22.20;99.90;;;;;;5074719;28;19909;-75
2021/11/25 01:04:50;;;;;;;;;;;22.10;99.90;;;;;;5074992;28;19956;-75
2021/11/25 01:07:17;;;;;;;;;;;22.10;99.90;;;;;;5074899;28;19940;-75
2021/11/25 01:09:43;;;;;;;;;;;22.10;99.90;;;;;;5074837;28;19908;-73
2021/11/25 01:12:11;;;;;;;;;;;22.20;99.90;;;;;;5074601;28;19931;-75
2021/11/25 01:14:38;;;;;;;;;;;22.30;99.90;;;;;;5074773;28;19908;-74
2021/11/25 01:17:05;;;;;;;;;;;22.40;99.90;;;;;;5074507;28;19917;-76
2021/11/25 01:19:31;;;;;;;;;;;22.40;99.90;;;;;;5074858;28;19908;-76
2021/11/25 01:21:58;;;;;;;;;;;22.40;99.90;;;;;;5074352;28;19908;-74
2021/11/25 01:24:25;;;;;;;;;;;22.50;99.90;;;;;;5074523;28;19909;-75
2021/11/25 01:26:52;;;;;;;;;;;22.50;99.90;;;;;;5074495;28;19908;-75
2021/11/25 01:29:19;;;;;;;;;;;22.50;99.90;;;;;;5073674;28;19908;-75
2021/11/25 01:31:45;;;;;;;;;;;22.60;99.90;;;;;;5074390;28;19912;-74
2021/11/25 01:34:12;;;;;;;;;;;22.60;99.90;;;;;;5074421;28;19908;-74
2021/11/25 01:36:39;;;;;;;;;;;22.60;99.90;;;;;;5073992;28;19916;-74
2021/11/25 01:39:06;;;;;;;;;;;22.70;99.90;;;;;;5074435;28;19912;-74
2021/11/25 01:41:32;;;;;;;;;;;22.80;99.90;;;;;;5074233;28;19909;-74
2021/11/25 01:43:59;;;;;;;;;;;22.80;99.90;;;;;;5074141;28;20282;-74
2021/11/25 01:46:26;;;;;;;;;;;22.90;99.90;;;;;;5074184;28;19923;-73
2021/11/25 01:48:53;;;;;;;;;;;22.90;99.90;;;;;;5074380;28;20278;-74
2021/11/25 01:51:21;;;;;;;;;;;23.00;99.90;;;;;;5074117;28;19915;-74
2021/11/25 01:53:48;;;;;;;;;;;23.00;99.90;;;;;;5073824;28;19909;-73
2021/11/25 01:56:16;;;;;;;;;;;23.00;99.90;;;;;;5073899;28;19912;-73
2021/11/25 01:58:43;;;;;;;;;;;22.90;99.90;;;;;;5074213;28;20003;-74
2021/11/25 02:01:10;;;;;;;;;;;23.00;99.90;;;;;;5073820;28;19933;-74
2021/11/25 02:03:37;;;;;;;;;;;23.00;99.90;;;;;;5073732;28;19961;-74
2021/11/25 02:06:05;;;;;;;;;;;23.00;99.90;;;;;;5073418;28;19913;-74
2021/11/25 02:08:32;;;;;;;;;;;23.00;99.90;;;;;;5073593;28;19977;-71
2021/11/25 02:10:59;;;;;;;;;;;23.00;99.90;;;;;;5073598;28;19908;-72
2021/11/25 02:13:28;;;;;;;;;;;23.00;99.90;;;;;;5073511;28;20363;-74
2021/11/25 02:15:55;;;;;;;;;;;23.00;99.90;;;;;;5073085;28;20015;-72
2021/11/25 02:18:23;;;;;;;;;;;23.10;99.90;;;;;;5073563;28;19913;-73
2021/11/25 02:20:52;;;;;;;;;;;23.20;99.90;;;;;;5073536;28;19915;-72
2021/11/25 02:23:19;;;;;;;;;;;23.10;99.90;;;;;;5073161;28;19916;-72
2021/11/25 02:25:46;;;;;;;;;;;23.00;99.90;;;;;;5073262;28;19988;-67
2021/11/25 02:28:14;;;;;;;;;;;23.00;99.90;;;;;;5073827;28;19916;-73
2021/11/25 02:30:41;;;;;;;;;;;22.90;99.90;;;;;;5073332;28;19915;-73
2021/11/25 02:33:08;;;;;;;;;;;22.90;99.90;;;;;;5073266;28;19912;-73
2021/11/25 02:35:37;;;;;;;;;;;22.80;99.90;;;;;;5073017;28;19913;-74
2021/11/25 02:38:03;;;;;;;;;;;22.90;99.90;;;;;;5072513;28;19913;-73
2021/11/25 02:40:34;;;;;;;;;;;22.80;99.90;;;;;;5072866;28;19912;-71
2021/11/25 02:43:10;;;;;;;;;;;22.80;99.90;;;;;;5073171;28;19909;-74
2021/11/25 02:45:46;;;;;;;;;;;22.80;99.90;;;;;;5073163;28;19909;-74
2021/11/25 02:48:13;;;;;;;;;;;22.80;99.90;;;;;;5073028;28;19909;-74
2021/11/25 02:50:40;;;;;;;;;;;22.80;99.90;;;;;;5073007;28;19908;-75
2021/11/25 02:53:07;;;;;;;;;;;22.70;99.90;;;;;;5072726;28;19909;-75
2021/11/25 02:55:34;;;;;;;;;;;22.60;99.90;;;;;;5072943;28;19909;-74
2021/11/25 02:58:01;;;;;;;;;;;22.50;99.90;;;;;;5072582;28;19935;-75
2021/11/25 03:00:30;;;;;;;;;;;22.40;99.90;;;;;;5072712;28;19924;-75
2021/11/25 03:02:59;;;;;;;;;;;22.40;99.90;;;;;;5072827;28;19916;-74
2021/11/25 03:05:25;;;;;;;;;;;22.50;99.90;;;;;;5072551;28;19913;-73
2021/11/25 03:07:52;;;;;;;;;;;22.50;99.90;;;;;;5072496;28;19908;-74
2021/11/25 03:10:19;;;;;;;;;;;22.40;99.90;;;;;;5072720;28;19908;-75
2021/11/25 03:12:45;;;;;;;;;;;22.40;99.90;;;;;;5072469;28;19939;-75
2021/11/25 03:15:12;;;;;;;;;;;22.30;99.90;;;;;;5072476;28;20013;-75
2021/11/25 03:17:39;;;;;;;;;;;22.40;99.90;;;;;;5072413;28;19959;-75
2021/11/25 03:20:07;;;;;;;;;;;22.40;99.90;;;;;;5072308;28;20350;-74
2021/11/25 03:22:34;;;;;;;;;;;22.40;99.90;;;;;;5072382;28;19912;-75
2021/11/25 03:25:01;;;;;;;;;;;22.50;99.90;;;;;;5072519;28;20343;-74
2021/11/25 03:27:28;;;;;;;;;;;22.50;99.90;;;;;;5072614;28;19908;-74
2021/11/25 03:29:54;;;;;;;;;;;22.50;99.90;;;;;;5072438;28;20355;-73
2021/11/25 03:32:21;;;;;;;;;;;22.60;99.90;;;;;;5072158;28;20326;-75
2021/11/25 03:34:48;;;;;;;;;;;22.50;99.90;;;;;;5071922;28;20003;-75
2021/11/25 03:37:14;;;;;;;;;;;22.50;99.90;;;;;;5072013;28;19920;-74
2021/11/25 03:39:41;;;;;;;;;;;22.50;99.90;;;;;;5072008;28;19915;-75
2021/11/25 03:42:08;;;;;;;;;;;22.70;99.90;;;;;;5072074;28;19913;-75
2021/11/25 03:44:34;;;;;;;;;;;22.60;99.90;;;;;;5072553;28;19955;-74
2021/11/25 03:47:01;;;;;;;;;;;22.70;99.90;;;;;;5072333;28;19909;-73
2021/11/25 03:49:28;;;;;;;;;;;22.70;99.90;;;;;;5072496;28;19980;-74
2021/11/25 03:51:54;;;;;;;;;;;22.70;99.90;;;;;;5071800;28;19915;-74
2021/11/25 03:54:21;;;;;;;;;;;22.80;99.90;;;;;;5075881;28;19908;-74
2021/11/25 03:56:48;;;;;;;;;;;22.80;99.90;;;;;;5076163;28;19917;-74
2021/11/25 03:59:14;;;;;;;;;;;22.80;99.90;;;;;;5076075;28;19957;-74
2021/11/25 04:01:41;;;;;;;;;;;22.80;99.90;;;;;;5076198;28;19916;-72
2021/11/25 04:04:10;;;;;;;;;;;22.80;99.90;;;;;;5075971;28;19909;-75
2021/11/25 04:06:37;;;;;;;;;;;22.90;99.90;;;;;;5076021;28;19909;-72
2021/11/25 04:09:04;;;;;;;;;;;22.90;99.90;;;;;;5076105;28;20363;-74
2021/11/25 04:11:31;;;;;;;;;;;22.90;99.90;;;;;;5076162;28;19909;-72
2021/11/25 04:14:03;;;;;;;;;;;22.90;99.90;;;;;;5075725;28;19914;-72
2021/11/25 04:16:30;;;;;;;;;;;22.90;99.90;;;;;;5075867;28;20011;-74
2021/11/25 04:18:58;;;;;;;;;;;22.90;99.90;;;;;;5075681;28;19908;-74
2021/11/25 04:21:25;;;;;;;;;;;23.00;99.90;;;;;;5075768;28;20273;-76
2021/11/25 04:23:52;;;;;;;;;;;23.00;99.90;;;;;;5075507;28;19947;-75
2021/11/25 04:26:19;;;;;;;;;;;22.90;99.90;;;;;;5075682;28;20358;-75
2021/11/25 04:28:46;;;;;;;;;;;23.00;99.90;;;;;;5075502;28;19912;-76
2021/11/25 04:36:43;;;;;;;;;;;23.00;99.90;;;;;;5075428;28;20019;-75
2021/11/25 04:39:10;;;;;;;;;;;23.00;99.90;;;;;;5075636;28;19915;-75
2021/11/25 04:41:37;;;;;;;;;;;23.00;99.90;;;;;;5075376;28;19912;-75
2021/11/25 04:44:03;;;;;;;;;;;23.10;99.90;;;;;;5075130;28;20333;-75
2021/11/25 04:46:30;;;;;;;;;;;23.10;99.90;;;;;;5075236;28;19912;-75
2021/11/25 04:48:57;;;;;;;;;;;23.10;99.90;;;;;;5075031;28;19908;-72
2021/11/25 04:51:24;;;;;;;;;;;23.10;99.90;;;;;;5075043;28;19958;-75
2021/11/25 04:53:50;;;;;;;;;;;23.10;99.90;;;;;;5074607;28;19931;-74
2021/11/25 04:56:17;;;;;;;;;;;23.10;99.90;;;;;;5074899;28;19924;-73
2021/11/25 04:58:49;;;;;;;;;;;23.20;99.90;;;;;;5075142;28;19909;-75
2021/11/25 05:01:16;;;;;;;;;;;23.10;99.90;;;;;;5074654;28;20305;-74
2021/11/25 05:03:42;;;;;;;;;;;23.00;99.90;;;;;;5074316;28;20343;-72
2021/11/25 05:06:09;;;;;;;;;;;23.10;99.90;;;;;;5089706;28;19908;-75
2021/11/25 05:08:36;;;;;;;;;;;23.20;99.90;;;;;;5074866;28;20003;-75
2021/11/25 05:11:03;;;;;;;;;;;23.20;99.90;;;;;;5074388;28;20264;-75
2021/11/25 05:13:29;;;;;;;;;;;23.20;99.90;;;;;;5074631;28;20065;-74
2021/11/25 05:15:56;;;;;;;;;;;23.30;99.90;;;;;;5074755;28;20401;-74
2021/11/25 05:18:23;;;;;;;;;;;23.30;99.90;;;;;;5074681;28;20294;-76
2021/11/25 05:20:50;;;;;;;;;;;23.20;99.90;;;;;;5074771;28;19908;-72
2021/11/25 05:23:17;;;;;;;;;;;23.10;99.90;;;;;;5074658;28;19909;-75
2021/11/25 05:25:43;;;;;;;;;;;23.00;99.90;;;;;;5074767;28;19915;-74
2021/11/25 05:28:10;;;;;;;;;;;22.90;99.90;;;;;;5074425;28;19979;-72
2021/11/25 05:30:37;;;;;;;;;;;22.80;99.90;;;;;;5074533;28;19954;-75
2021/11/25 05:33:04;;;;;;;;;;;22.70;99.90;;;;;;5074609;28;19909;-74
2021/11/25 05:35:31;;;;;;;;;;;22.70;99.90;;;;;;5074374;28;20369;-75
2021/11/25 05:37:58;;;;;;;;;;;22.60;99.90;;;;;;5073822;28;20019;-75
2021/11/25 05:40:25;;;;;;;;;;;22.70;99.90;;;;;;5074414;28;19955;-74
2021/11/25 05:42:52;;;;;;;;;;;22.70;99.90;;;;;;5074400;28;19962;-70
2021/11/25 05:45:20;;;;;;;;;;;22.70;99.90;;;;;;5074403;28;19908;-75
2021/11/25 05:47:47;;;;;;;;;;;22.70;99.90;;;;;;5073975;28;19912;-75
2021/11/25 05:50:17;;;;;;;;;;;22.70;99.90;;;;;;5073959;28;19909;-75
2021/11/25 05:52:45;;;;;;;;;;;22.70;99.90;;;;;;5071121;28;19908;-75
2021/11/25 05:55:12;;;;;;;;;;;22.70;99.90;;;;;;5071927;28;19915;-75
2021/11/25 05:57:39;;;;;;;;;;;22.70;99.90;;;;;;5071738;28;19916;-77
2021/11/25 06:00:07;;;;;;;;;;;22.70;99.90;;;;;;5071504;28;20867;-74
2021/11/25 06:02:33;;;;;;;;;;;22.70;99.90;;;;;;5071707;28;19954;-73
2021/11/25 06:05:04;;;;;;;;;;;22.70;99.90;;;;;;5070886;28;20538;-75
2021/11/25 06:07:31;;;;;;;;;;;22.70;99.90;;;;;;5071530;28;19908;-75
2021/11/25 06:09:57;;;;;;;;;;;22.60;99.90;;;;;;5071349;28;19909;-73
2021/11/25 06:12:24;;;;;;;;;;;22.60;99.90;;;;;;5071867;28;19916;-75
2021/11/25 06:14:51;;;;;;;;;;;22.60;99.90;;;;;;5071610;28;20550;-74
2021/11/25 06:17:18;;;;;;;;;;;22.60;99.90;;;;;;5070784;28;19921;-75
2021/11/25 06:19:44;;;;;;;;;;;22.60;99.90;;;;;;5071620;28;19923;-74
2021/11/25 06:22:11;;;;;;;;;;;22.60;99.90;;;;;;5071307;28;19913;-75
2021/11/25 06:24:38;;;;;;;;;;;22.60;99.90;;;;;;5071416;28;20359;-75
2021/11/25 06:27:05;;;;;;;;;;;22.60;99.90;;;;;;5071359;28;19943;-73
2021/11/25 06:29:31;;;;;;;;;;;22.50;99.90;;;;;;5069501;28;19916;-70
2021/11/25 06:31:58;;;;;;;;;;;22.50;99.90;;;;;;5070866;28;19912;-75
2021/11/25 06:34:25;;;;;;;;;;;22.50;99.90;;;;;;5071201;28;19969;-76
2021/11/25 06:36:51;;;;;;;;;;;22.50;99.90;;;;;;5086426;28;20003;-74
2021/11/25 06:39:18;;;;;;;;;;;22.50;99.90;;;;;;5070920;28;19909;-73
2021/11/25 06:41:46;;;;;;;;;;;22.40;99.90;;;;;;5070712;28;19912;-75
2021/11/25 06:44:13;;;;;;;;;;;22.30;99.90;;;;;;5070124;28;20270;-75
2021/11/25 06:46:39;;;;;;;;;;;22.30;99.90;;;;;;5070800;28;19909;-75
2021/11/25 06:49:06;;;;;;;;;;;22.20;99.90;;;;;;5070794;28;20382;-74
2021/11/25 06:51:33;;;;;;;;;;;22.10;99.90;;;;;;5070796;28;19912;-70
2021/11/25 06:54:00;;;;;;;;;;;22.10;99.90;;;;;;5070608;28;19912;-75
2021/11/25 06:56:27;;;;;;;;;;;22.10;99.90;;;;;;5070165;28;19920;-75
2021/11/25 06:58:55;;;;;;;;;;;22.10;99.90;;;;;;5070545;28;20015;-74
2021/11/25 07:01:24;;;;;;;;;;;22.00;99.90;;;;;;5070437;28;19944;-70
2021/11/25 07:03:51;;;;;;;;;;;22.00;99.90;;;;;;5070528;28;19927;-71
2021/11/25 07:06:18;;;;;;;;;;;21.90;99.90;;;;;;5070593;28;20003;-72
2021/11/25 07:08:44;;;;;;;;;;;21.80;99.90;;;;;;5070481;28;19919;-73
2021/11/25 07:11:11;;;;;;;;;;;21.80;99.90;;;;;;5070298;28;19916;-70
2021/11/25 07:13:38;;;;;;;;;;;21.70;99.90;;;;;;5070574;28;19962;-69
2021/11/25 07:16:05;;;;;;;;;;;21.70;99.90;;;;;;5070218;28;20015;-71
2021/11/25 07:18:32;;;;;;;;;;;21.70;99.90;;;;;;5085921;28;19913;-69
2021/11/25 07:20:59;;;;;;;;;;;21.70;99.90;;;;;;5070383;28;20227;-73
2021/11/25 07:23:29;;;;;;;;;;;21.70;99.90;;;;;;5069896;28;19974;-75
2021/11/25 07:25:55;;;;;;;;;;;21.70;99.90;;;;;;5070069;28;19908;-73
2021/11/25 07:28:22;;;;;;;;;;;21.70;99.90;;;;;;5069615;28;19912;-72
2021/11/25 07:30:49;;;;;;;;;;;21.70;99.90;;;;;;5070423;28;19915;-69
2021/11/25 07:33:16;;;;;;;;;;;21.60;99.90;;;;;;5070363;28;20336;-71
2021/11/25 07:35:46;;;;;;;;;;;21.60;99.90;;;;;;5069681;28;19974;-70
2021/11/25 07:38:13;;;;;;;;;;;21.60;99.90;;;;;;5070360;28;20278;-72
2021/11/25 07:40:42;;;;;;;;;;;21.70;99.90;;;;;;5070493;28;19908;-70
2021/11/25 07:43:08;;;;;;;;;;;21.70;99.90;;;;;;5070352;28;20409;-69
2021/11/25 07:45:35;;;;;;;;;;;21.70;99.90;;;;;;5070297;28;20333;-72
2021/11/25 07:48:02;;;;;;;;;;;21.70;99.90;;;;;;5069676;28;19916;-71
2021/11/25 07:50:29;;;;;;;;;;;21.70;99.90;;;;;;5070210;28;20347;-71
2021/11/25 07:52:56;;;;;;;;;;;21.70;99.90;;;;;;5070335;28;19912;-69
2021/11/25 07:55:23;;;;;;;;;;;21.70;99.90;;;;;;5070185;28;19915;-72
2021/11/25 07:57:50;;;;;;;;;;;21.60;99.90;;;;;;5069962;28;19917;-70
2021/11/25 08:00:21;;;;;;;;;;;21.70;99.90;;;;;;5070042;28;20330;-69
2021/11/25 08:02:48;;;;;;;;;;;21.60;99.90;;;;;;5069871;28;19920;-70
2021/11/25 08:05:14;;;;;;;;;;;21.60;99.90;;;;;;5070520;28;19912;-69
2021/11/25 08:07:42;;;;;;;;;;;21.60;99.90;;;;;;5072038;28;19999;-69
2021/11/25 08:10:11;;;;;;;;;;;21.50;99.90;;;;;;5072118;28;19908;-72
2021/11/25 08:12:38;;;;;;;;;;;21.40;99.90;;;;;;5072126;28;20282;-69
2021/11/25 08:15:06;;;;;;;;;;;21.30;99.90;;;;;;5071916;28;20274;-74
2021/11/25 08:17:32;;;;;;;;;;;21.30;99.90;;;;;;5072002;28;20275;-69
2021/11/25 08:19:59;;;;;;;;;;;21.30;99.90;;;;;;5071534;28;19908;-72
2021/11/25 08:22:26;;;;;;;;;;;21.30;99.90;;;;;;5071670;28;20011;-68
2021/11/25 08:24:52;;;;;;;;;;;21.30;99.90;;;;;;5071843;28;20335;-71
2021/11/25 08:27:19;;;;;;;;;;;21.30;99.90;;;;;;5072162;28;19909;-69
2021/11/25 08:29:46;;;;;;;;;;;21.30;99.90;;;;;;5071984;28;20307;-70
2021/11/25 08:32:12;;;;;;;;;;;21.30;99.90;;;;;;5071882;28;19908;-72
2021/11/25 08:34:39;;;;;;;;;;;21.30;99.90;;;;;;5071972;28;20011;-67
2021/11/25 08:37:07;;;;;;;;;;;21.30;99.90;;;;;;5071649;28;19920;-70
2021/11/25 08:39:36;;;;;;;;;;;21.30;99.90;;;;;;5074164;28;19943;-68
2021/11/25 08:42:04;;;;;;;;;;;21.30;99.90;;;;;;5075391;28;19931;-72
2021/11/25 08:44:31;;;;;;;;;;;21.30;99.90;;;;;;5075391;28;20393;-68
2021/11/25 08:46:58;;;;;;;;;;;21.30;99.90;;;;;;5075310;28;20281;-73
2021/11/25 08:49:25;;;;;;;;;;;21.30;99.90;;;;;;5075317;28;19950;-69
2021/11/25 08:51:51;;;;;;;;;;;21.30;99.90;;;;;;5074985;28;19999;-68
2021/11/25 08:54:18;;;;;;;;;;;21.30;99.90;;;;;;5075374;28;20422;-71
2021/11/25 08:56:45;;;;;;;;;;;21.30;99.90;;;;;;5075000;28;20007;-73
2021/11/25 08:59:12;;;;;;;;;;;21.30;99.90;;;;;;5075079;28;19909;-71
2021/11/25 09:01:38;;;;;;;;;;;21.30;99.90;;;;;;5072754;28;20010;-70
2021/11/25 09:04:05;;;;;;;;;;;21.30;99.90;;;;;;5074863;28;19916;-69
2021/11/25 09:06:31;;;;;;;;;;;21.30;99.90;;;;;;5074969;28;19909;-71
2021/11/25 09:08:59;;;;;;;;;;;21.20;99.90;;;;;;5075075;28;19978;-72
2021/11/25 09:11:26;;;;;;;;;;;21.30;99.90;;;;;;5075084;28;19946;-68
2021/11/25 09:13:53;;;;;;;;;;;21.20;99.90;;;;;;5074674;28;19908;-69
2021/11/25 09:16:19;;;;;;;;;;;21.30;99.90;;;;;;5075038;28;20389;-70
2021/11/25 09:18:54;;;;;;;;;;;21.30;99.90;;;;;;5074725;28;19912;-74
2021/11/25 09:21:22;;;;;;;;;;;21.30;99.90;;;;;;5074712;28;19908;-72
2021/11/25 09:23:50;;;;;;;;;;;21.30;99.90;;;;;;5073142;28;20076;-72
2021/11/25 09:26:22;;;;;;;;;;;21.30;99.90;;;;;;5074709;28;19915;-70
2021/11/25 09:28:49;;;;;;;;;;;21.40;99.90;;;;;;5073262;28;19915;-71
2021/11/25 09:31:18;;;;;;;;;;;21.40;99.90;;;;;;5074537;28;20009;-73
2021/11/25 09:33:45;;;;;;;;;;;21.50;99.90;;;;;;5074542;28;19962;-73
2021/11/25 09:36:13;;;;;;;;;;;21.40;99.90;;;;;;5089673;28;19916;-71
2021/11/25 09:38:40;;;;;;;;;;;21.40;99.90;;;;;;5074546;28;19912;-69
2021/11/25 09:41:07;;;;;;;;;;;21.40;99.90;;;;;;5074353;28;20278;-70
2021/11/25 09:43:34;;;;;;;;;;;21.50;99.90;;;;;;5089650;28;19920;-68
2021/11/25 09:46:02;;;;;;;;;;;21.50;99.90;;;;;;5074344;28;20000;-69
2021/11/25 09:48:28;;;;;;;;;;;21.40;99.90;;;;;;5074030;28;19909;-70
2021/11/25 09:50:56;;;;;;;;;;;21.50;99.90;;;;;;5089022;28;20011;-70
2021/11/25 09:53:24;;;;;;;;;;;21.50;99.90;;;;;;5074096;28;19908;-71
2021/11/25 09:55:52;;;;;;;;;;;21.50;99.90;;;;;;5073771;28;19909;-69
2021/11/25 09:58:25;;;;;;;;;;;21.50;99.90;;;;;;5073953;28;20440;-71
2021/11/25 10:00:56;;;;;;;;;;;21.50;99.90;;;;;;5073909;28;19965;-69
2021/11/25 10:03:23;;;;;;;;;;;21.50;99.90;;;;;;5073732;28;19942;-72
2021/11/25 10:05:52;;;;;;;;;;;21.50;99.90;;;;;;5073739;28;19909;-70
2021/11/25 10:08:32;;;;;;;;;;;21.50;99.90;;;;;;5089473;28;20278;-69
2021/11/25 10:11:01;;;;;;;;;;;21.50;99.90;;;;;;5074096;28;19915;-70
2021/11/25 10:13:35;;;;;;;;;;;21.50;99.90;;;;;;5073715;28;19974;-70
2021/11/25 10:16:02;;;;;;;;;;;21.40;99.90;;;;;;5072941;28;19908;-76
2021/11/25 10:18:35;;;;;;;;;;;21.50;99.90;;;;;;5072297;28;19913;-75
2021/11/25 10:21:15;;;;;;;;;;;21.50;99.90;;;;;;5073367;28;20275;-70
2021/11/25 10:23:44;;;;;;;;;;;21.40;99.90;;;;;;5074808;28;19920;-72
2021/11/25 10:26:20;;;;;;;;;;;21.50;99.90;;;;;;5073434;28;19971;-69
2021/11/25 10:28:47;;;;;;;;;;;21.50;99.90;;;;;;5073320;28;19913;-72
2021/11/25 10:31:17;;;;;;;;;;;21.50;99.90;;;;;;5073199;28;19909;-72
2021/11/25 10:33:52;;;;;;;;;;;21.50;99.90;;;;;;5073075;28;19912;-68
2021/11/25 10:36:40;;;;;;;;;;;21.50;99.90;;;;;;5071217;28;20267;-71
2021/11/25 10:39:13;;;;;;;;;;;21.40;99.90;;;;;;5073187;28;19920;-70
2021/11/25 10:42:00;;;;;;;;;;;21.40;99.90;;;;;;5072949;28;19915;-69
2021/11/25 10:44:29;;;;;;;;;;;21.40;99.90;;;;;;5073051;28;19986;-71
2021/11/25 10:46:59;;;;;;;;;;;21.40;99.90;;;;;;5072994;28;19908;-68
2021/11/25 10:49:34;;;;;;;;;;;21.30;99.90;;;;;;5072429;28;20448;-71
2021/11/25 10:52:01;;;;;;;;;;;21.30;99.90;;;;;;5072265;28;19997;-71
2021/11/25 10:54:29;;;;;;;;;;;21.30;99.90;;;;;;5073007;28;19919;-71
2021/11/25 10:56:57;;;;;;;;;;;21.30;99.90;;;;;;5072823;28;19920;-72
2021/11/25 10:59:44;;;;;;;;;;;21.20;99.90;;;;;;5072716;28;19908;-69
2021/11/25 11:02:19;;;;;;;;;;;21.20;99.90;;;;;;5074078;28;19916;-68
2021/11/25 11:04:47;;;;;;;;;;;21.20;99.90;;;;;;5072100;28;19908;-71
2021/11/25 11:07:24;;;;;;;;;;;21.10;99.90;;;;;;5072720;28;19916;-72
2021/11/25 11:09:52;;;;;;;;;;;21.10;99.90;;;;;;5072641;28;20359;-72
2021/11/25 11:12:46;;;;;;;;;;;21.10;99.90;;;;;;5072655;28;19999;-68
2021/11/25 11:18:42;;;;;;;;;;;21.10;99.90;;;;;;5072265;28;19961;-72
2021/11/25 11:20:50;;;;;;;;;;;21.10;99.90;;;;;;5072473;28;20401;-72
2021/11/25 11:23:18;;;;;;;;;;;21.00;99.90;;;;;;5072624;28;20012;-73
2021/11/25 11:25:45;;;;;;;;;;;21.00;99.90;;;;;;5072540;28;19912;-75
2021/11/25 11:28:12;;;;;;;;;;;21.00;99.90;;;;;;5071240;28;19916;-69
2021/11/25 11:30:39;;;;;;;;;;;21.00;99.90;;;;;;5072577;28;19908;-73
2021/11/25 11:33:08;;;;;;;;;;;21.00;99.90;;;;;;5072538;28;19956;-73
2021/11/25 11:35:35;;;;;;;;;;;21.00;99.90;;;;;;5072361;28;20324;-74
2021/11/25 11:38:05;;;;;;;;;;;21.00;99.90;;;;;;5072040;28;19921;-74
2021/11/25 11:40:34;;;;;;;;;;;21.00;99.90;;;;;;5072451;28;19909;-71
2021/11/25 11:43:02;;;;;;;;;;;21.00;99.90;;;;;;5072464;28;19909;-72
2021/11/25 11:45:30;;;;;;;;;;;21.00;99.90;;;;;;5072371;28;19908;-70
2021/11/25 11:48:00;;;;;;;;;;;21.10;99.90;;;;;;5070752;28;20058;-74
2021/11/25 11:50:35;;;;;;;;;;;21.10;99.90;;;;;;5087620;28;19922;-71
2021/11/25 11:53:04;;;;;;;;;;;21.10;99.90;;;;;;5072636;28;19995;-71
2021/11/25 11:55:42;;;;;;;;;;;21.20;99.90;;;;;;5072439;28;19943;-73
2021/11/25 11:58:21;;;;;;;;;;;21.20;99.90;;;;;;5071513;28;19917;-73
2021/11/25 12:00:50;;;;;;;;;;;21.20;99.90;;;;;;5070865;28;19943;-71
2021/11/25 12:03:49;;;;;;;;;;;21.20;99.90;;;;;;5072309;28;20029;-71
2021/11/25 12:06:32;;;;;;;;;;;21.20;99.90;;;;;;5049141;28;20003;-69
2021/11/25 12:09:01;;;;;;;;;;;21.20;99.90;;;;;;5072167;28;19970;-75
2021/11/25 12:11:42;;;;;;;;;;;21.10;99.90;;;;;;5071678;28;20311;-74
2021/11/25 12:14:21;;;;;;;;;;;21.20;99.90;;;;;;5073738;28;19962;-76
2021/11/25 12:17:00;;;;;;;;;;;21.20;99.90;;;;;;5075968;28;19919;-76
2021/11/25 12:19:30;;;;;;;;;;;21.20;99.90;;;;;;5076112;28;19912;-76
2021/11/25 12:21:58;;;;;;;;;;;21.20;99.90;;;;;;5075926;28;19915;-75
2021/11/25 12:24:30;;;;;;;;;;;21.20;99.90;;;;;;5091455;28;19916;-74
2021/11/25 12:26:57;;;;;;;;;;;21.20;99.90;;;;;;5075926;28;19912;-75
2021/11/25 12:29:33;;;;;;;;;;;21.30;99.90;;;;;;5075805;28;19908;-75
2021/11/25 12:32:29;;;;;;;;;;;21.30;99.90;;;;;;5075686;28;19908;-76
2021/11/25 12:35:26;;;;;;;;;;;21.20;99.90;;;;;;5075697;28;19908;-74
2021/11/25 12:37:58;;;;;;;;;;;21.20;99.90;;;;;;5075241;28;19921;-73
2021/11/25 12:40:24;;;;;;;;;;;21.20;99.90;;;;;;5075491;28;19908;-75
2021/11/25 12:42:51;;;;;;;;;;;21.20;99.90;;;;;;5075499;28;19916;-74
2021/11/25 12:45:22;;;;;;;;;;;21.20;99.90;;;;;;5075496;28;20003;-75
2021/11/25 12:47:50;;;;;;;;;;;21.20;99.90;;;;;;5075391;28;19909;-75
2021/11/25 12:50:21;;;;;;;;;;;21.10;99.90;;;;;;5075267;28;19931;-76
2021/11/25 12:52:49;;;;;;;;;;;21.10;99.90;;;;;;5090808;28;19913;-75
2021/11/25 12:55:16;;;;;;;;;;;21.00;99.90;;;;;;5075316;28;19916;-74
2021/11/25 12:57:53;;;;;;;;;;;21.00;99.90;;;;;;5073656;28;19963;-74
2021/11/25 13:00:21;;;;;;;;;;;21.10;99.90;;;;;;5075136;28;19920;-74
2021/11/25 13:03:10;;;;;;;;;;;21.10;99.90;;;;;;5075107;28;19912;-74
2021/11/25 13:05:38;;;;;;;;;;;21.10;99.90;;;;;;5074997;28;20359;-75
2021/11/25 13:08:07;;;;;;;;;;;21.00;99.90;;;;;;5074996;28;20009;-74
2021/11/25 13:10:36;;;;;;;;;;;21.00;99.90;;;;;;5074939;28;19959;-73
2021/11/25 13:13:12;;;;;;;;;;;21.00;99.90;;;;;;5075193;28;20002;-74
2021/11/25 13:16:17;;;;;;;;;;;20.90;99.90;;;;;;5075026;28;20001;-75
2021/11/25 13:18:44;;;;;;;;;;;20.90;99.90;;;;;;5051380;28;19916;-68
2021/11/25 13:21:19;;;;;;;;;;;20.90;99.90;;;;;;5075101;28;19916;-70
2021/11/25 13:23:51;;;;;;;;;;;20.90;99.90;;;;;;5074756;28;19908;-67
2021/11/25 13:26:17;;;;;;;;;;;20.90;99.90;;;;;;5089154;28;19919;-68
2021/11/25 13:28:48;;;;;;;;;;;20.90;99.90;;;;;;5074848;28;19912;-67
2021/11/25 13:31:16;;;;;;;;;;;20.80;99.90;;;;;;5074824;28;19916;-69
2021/11/25 13:33:58;;;;;;;;;;;20.70;99.90;;;;;;5074736;28;19909;-68
2021/11/25 13:36:28;;;;;;;;;;;20.30;99.90;;;;;;5074609;28;19912;-67
2021/11/25 13:38:58;;;;;;;;;;;19.80;99.90;;;;;;5074537;28;19916;-68
2021/11/25 13:41:25;;;;;;;;;;;19.60;99.90;;;;;;5074634;28;19954;-67
2021/11/25 13:43:53;;;;;;;;;;;19.40;99.90;;;;;;5089840;28;20007;-68
2021/11/25 13:46:32;;;;;;;;;;;19.40;99.90;;;;;;5074379;28;19908;-67
2021/11/25 13:49:02;;;;;;;;;;;19.30;99.90;;;;;;5074211;28;19915;-68
2021/11/25 13:51:29;;;;;;;;;;;19.20;99.90;;;;;;5074357;28;20374;-68
2021/11/25 13:54:11;;;;;;;;;;;19.10;99.90;;;;;;5074194;28;19919;-67
2021/11/25 13:56:41;;;;;;;;;;;19.00;99.90;;;;;;5074228;28;20286;-67
2021/11/25 13:59:13;;;;;;;;;;;19.00;99.90;;;;;;5074069;28;19919;-67
2021/11/25 14:01:43;;;;;;;;;;;19.00;99.90;;;;;;5074062;28;20291;-67
2021/11/25 14:04:11;;;;;;;;;;;19.00;99.90;;;;;;5073654;28;19909;-69
2021/11/25 14:06:38;;;;;;;;;;;18.90;99.90;;;;;;5072655;28;19958;-68
2021/11/25 14:09:16;;;;;;;;;;;18.90;99.90;;;;;;5089050;28;19913;-68
2021/11/25 14:11:58;;;;;;;;;;;18.90;99.90;;;;;;5074070;28;19909;-69
2021/11/25 14:14:39;;;;;;;;;;;18.90;99.90;;;;;;5072617;28;19908;-68
2021/11/25 14:17:14;;;;;;;;;;;18.80;99.90;;;;;;5073837;28;19920;-68
2021/11/25 14:19:41;;;;;;;;;;;18.80;99.90;;;;;;5073619;28;19908;-68
2021/11/25 14:22:20;;;;;;;;;;;18.80;99.90;;;;;;5073599;28;19916;-67
2021/11/25 14:24:48;;;;;;;;;;;18.80;99.90;;;;;;5073749;28;19912;-68
2021/11/25 14:32:33;;;;;;;;;;;18.80;99.90;;;;;;5073585;28;19909;-68
2021/11/25 14:35:01;;;;;;;;;;;18.70;99.90;;;;;;5073151;28;19974;-69
2021/11/25 14:37:30;;;;;;;;;;;18.70;99.90;;;;;;5073138;28;19920;-69
2021/11/25 14:40:16;;;;;;;;;;;18.70;99.90;;;;;;5073243;28;19913;-68